createdAt,value
2019-06-20T00:00:42.695Z,100.00
2019-06-20T00:03:11.356Z,100.00
2019-06-20T00:05:38.796Z,100.00
2019-06-20T00:48:24.088Z,100.00
2019-06-20T00:50:51.551Z,100.00
2019-06-20T00:53:19.564Z,100.00
2019-06-20T00:55:47.310Z,100.00
2019-06-20T00:58:14.333Z,100.00
2019-06-20T01:00:41.619Z,100.00
2019-06-20T01:03:09.031Z,100.00
2019-06-20T01:05:36.495Z,100.00
2019-06-20T01:08:03.846Z,100.00
2019-06-20T01:10:31.544Z,100.00
2019-06-20T01:12:58.869Z,100.00
2019-06-20T01:15:26.358Z,100.00
2019-06-20T01:17:53.394Z,100.00
2019-06-20T01:20:21.808Z,100.00
2019-06-20T01:22:49.189Z,100.00
2019-06-20T01:25:28.520Z,100.00
2019-06-20T01:27:55.906Z,100.00
2019-06-20T01:30:22.915Z,100.00
2019-06-20T01:32:50.622Z,100.00
2019-06-20T01:35:17.974Z,100.00
2019-06-20T01:37:45.703Z,100.00
2019-06-20T01:40:12.845Z,100.00
2019-06-20T01:42:40.251Z,100.00
2019-06-20T01:45:07.831Z,100.00
2019-06-20T01:47:34.991Z,100.00
2019-06-20T01:50:02.374Z,100.00
2019-06-20T01:52:30.543Z,100.00
2019-06-20T01:54:57.601Z,100.00
2019-06-20T01:57:25.446Z,100.00
2019-06-20T01:59:52.506Z,100.00
2019-06-20T02:02:20.300Z,100.00
2019-06-20T02:04:47.606Z,100.00
2019-06-20T02:07:15.318Z,100.00
2019-06-20T02:09:42.646Z,100.00
2019-06-20T02:12:09.736Z,100.00
2019-06-20T02:14:37.054Z,100.00
2019-06-20T02:17:04.426Z,100.00
2019-06-20T02:19:32.209Z,100.00
2019-06-20T02:21:59.993Z,100.00
2019-06-20T02:24:27.736Z,100.00
2019-06-20T02:26:55.508Z,100.00
2019-06-20T02:29:22.589Z,100.00
2019-06-20T02:31:50.140Z,100.00
2019-06-20T02:34:17.267Z,100.00
2019-06-20T02:36:45.216Z,100.00
2019-06-20T02:39:12.620Z,100.00
2019-06-20T02:41:40.777Z,100.00
2019-06-20T02:44:28.569Z,100.00
2019-06-20T02:46:39.331Z,100.00
2019-06-20T02:49:07.128Z,100.00
2019-06-20T02:51:34.907Z,100.00
2019-06-20T02:54:02.305Z,100.00
2019-06-20T02:56:30.498Z,100.00
2019-06-20T02:58:57.854Z,100.00
2019-06-20T03:01:26.170Z,100.00
2019-06-20T03:03:53.539Z,100.00
2019-06-20T03:06:20.927Z,100.00
2019-06-20T03:08:48.231Z,100.00
2019-06-20T03:11:15.204Z,100.00
2019-06-20T03:13:42.916Z,100.00
2019-06-20T03:16:10.572Z,100.00
2019-06-20T03:18:38.414Z,100.00
2019-06-20T03:21:06.197Z,100.00
2019-06-20T03:23:33.591Z,100.00
2019-06-20T03:26:01.326Z,100.00
2019-06-20T03:28:29.168Z,100.00
2019-06-20T03:30:57.281Z,100.00
2019-06-20T03:33:24.638Z,100.00
2019-06-20T03:35:52.349Z,100.00
2019-06-20T03:38:19.697Z,100.00
2019-06-20T03:40:47.828Z,100.00
2019-06-20T03:43:16.010Z,100.00
2019-06-20T03:45:43.776Z,100.00
2019-06-20T03:48:11.092Z,100.00
2019-06-20T03:50:38.984Z,100.00
2019-06-20T03:53:06.734Z,100.00
2019-06-20T03:55:34.616Z,100.00
2019-06-20T03:58:02.149Z,100.00
2019-06-20T04:00:32.446Z,100.00
2019-06-20T04:02:59.957Z,100.00
2019-06-20T04:05:27.059Z,100.00
2019-06-20T04:07:54.765Z,100.00
2019-06-20T04:10:22.174Z,100.00
2019-06-20T04:12:49.178Z,100.00
2019-06-20T04:15:19.422Z,100.00
2019-06-20T04:20:31.170Z,100.00
2019-06-20T04:22:59.357Z,100.00
2019-06-20T04:25:27.073Z,100.00
2019-06-20T04:27:54.694Z,100.00
2019-06-20T04:30:22.471Z,100.00
2019-06-20T04:32:50.554Z,100.00
2019-06-20T04:35:17.936Z,100.00
2019-06-20T04:37:45.993Z,100.00
2019-06-20T04:40:14.847Z,100.00
2019-06-20T04:42:42.232Z,100.00
2019-06-20T04:45:35.437Z,100.00
2019-06-20T04:48:01.491Z,100.00
2019-06-20T04:50:29.179Z,100.00
2019-06-20T04:52:56.632Z,100.00
2019-06-20T04:55:24.399Z,100.00
2019-06-20T04:57:52.048Z,100.00
2019-06-20T05:00:20.061Z,100.00
2019-06-20T05:02:47.063Z,100.00
2019-06-20T05:05:15.036Z,100.00
2019-06-20T05:07:42.392Z,100.00
2019-06-20T05:10:10.695Z,100.00
2019-06-20T05:12:38.096Z,100.00
2019-06-20T05:15:06.470Z,100.00
2019-06-20T05:17:33.910Z,100.00
2019-06-20T05:20:04.157Z,100.00
2019-06-20T05:22:31.957Z,100.00
2019-06-20T05:24:59.566Z,100.00
2019-06-20T05:27:27.006Z,100.00
2019-06-20T05:29:55.369Z,100.00
2019-06-20T05:32:23.139Z,100.00
2019-06-20T05:34:50.229Z,100.00
2019-06-20T05:37:17.564Z,100.00
2019-06-20T05:39:44.894Z,100.00
2019-06-20T05:42:12.919Z,100.00
2019-06-20T05:44:40.597Z,100.00
2019-06-20T05:47:12.638Z,100.00
2019-06-20T05:49:37.395Z,100.00
2019-06-20T05:52:05.189Z,100.00
2019-06-20T05:54:32.956Z,100.00
2019-06-20T05:57:03.312Z,100.00
2019-06-20T05:59:29.334Z,100.00
2019-06-20T06:01:56.585Z,100.00
2019-06-20T06:04:24.496Z,100.00
2019-06-20T06:06:52.369Z,100.00
2019-06-20T06:09:19.806Z,100.00
2019-06-20T06:11:47.134Z,100.00
2019-06-20T06:14:14.619Z,100.00
2019-06-20T06:16:44.226Z,100.00
2019-06-20T06:19:12.061Z,100.00
2019-06-20T06:21:39.729Z,100.00
2019-06-20T06:24:06.744Z,100.00
2019-06-20T06:26:33.801Z,100.00
2019-06-20T06:29:01.188Z,100.00
2019-06-20T06:31:28.199Z,100.00
2019-06-20T06:33:55.885Z,100.00
2019-06-20T06:36:23.399Z,100.00
2019-06-20T06:38:51.842Z,100.00
2019-06-20T06:41:19.281Z,100.00
2019-06-20T06:43:46.618Z,100.00
2019-06-20T06:46:13.979Z,100.00
2019-06-20T06:48:41.754Z,100.00
2019-06-20T06:51:09.146Z,100.00
2019-06-20T06:53:36.892Z,100.00
2019-06-20T06:56:03.968Z,100.00
2019-06-20T06:58:31.688Z,100.00
2019-06-20T07:00:59.475Z,100.00
2019-06-20T07:03:26.824Z,100.00
2019-06-20T07:05:54.215Z,100.00
2019-06-20T07:08:21.646Z,100.00
2019-06-20T07:10:49.046Z,100.00
2019-06-20T07:13:16.749Z,100.00
2019-06-20T07:15:43.856Z,100.00
2019-06-20T07:18:11.620Z,100.00
2019-06-20T07:20:39.439Z,100.00
2019-06-20T07:23:06.787Z,100.00
2019-06-20T07:25:34.255Z,100.00
2019-06-20T07:28:01.717Z,100.00
2019-06-20T07:30:30.193Z,100.00
2019-06-20T07:32:57.614Z,100.00
2019-06-20T07:35:25.741Z,100.00
2019-06-20T07:37:53.346Z,100.00
2019-06-20T07:40:21.545Z,100.00
2019-06-20T07:42:49.301Z,100.00
2019-06-20T07:45:18.744Z,100.00
2019-06-20T07:47:46.185Z,100.00
2019-06-20T07:50:13.931Z,100.00
2019-06-20T07:52:41.329Z,100.00
2019-06-20T07:55:09.592Z,100.00
2019-06-20T07:57:37.510Z,98.53
2019-06-20T08:00:06.132Z,100.00
2019-06-20T08:02:33.439Z,100.00
2019-06-20T08:05:01.139Z,99.11
2019-06-20T08:07:29.012Z,99.76
2019-06-20T08:09:56.028Z,98.71
2019-06-20T08:12:23.380Z,99.00
2019-06-20T08:14:51.430Z,96.69
2019-06-20T08:17:34.402Z,96.60
2019-06-20T08:19:48.428Z,96.69
2019-06-20T08:22:15.894Z,98.05
2019-06-20T08:24:43.286Z,97.80
2019-06-20T08:27:10.383Z,96.20
2019-06-20T08:29:37.480Z,98.40
2019-06-20T08:32:04.898Z,97.14
2019-06-20T08:34:32.563Z,100.00
2019-06-20T08:37:00.548Z,99.10
2019-06-20T08:39:29.375Z,99.19
2019-06-20T08:41:59.173Z,98.64
2019-06-20T08:44:27.072Z,96.10
2019-06-20T08:46:56.415Z,97.94
2019-06-20T08:49:23.814Z,95.43
2019-06-20T08:51:51.330Z,96.31
2019-06-20T08:54:19.208Z,96.76
2019-06-20T08:56:47.390Z,92.70
2019-06-20T08:59:24.539Z,95.03
2019-06-20T09:01:44.750Z,95.55
2019-06-20T09:04:12.153Z,92.07
2019-06-20T09:06:39.849Z,91.39
2019-06-20T09:09:07.628Z,90.81
2019-06-20T09:11:34.671Z,93.10
2019-06-20T09:14:03.992Z,88.89
2019-06-20T09:16:31.329Z,89.40
2019-06-20T09:18:58.705Z,89.32
2019-06-20T09:21:25.720Z,91.03
2019-06-20T09:23:54.204Z,89.14
2019-06-20T09:26:22.350Z,89.92
2019-06-20T09:28:51.012Z,88.59
2019-06-20T09:31:18.626Z,90.09
2019-06-20T09:33:45.958Z,87.52
2019-06-20T09:36:13.659Z,89.96
2019-06-20T09:38:41.001Z,87.50
2019-06-20T09:41:08.806Z,87.94
2019-06-20T09:43:36.358Z,88.02
2019-06-20T09:46:03.567Z,89.93
2019-06-20T09:48:30.930Z,89.79
2019-06-20T09:50:58.637Z,86.02
2019-06-20T09:53:26.680Z,85.55
2019-06-20T09:55:54.027Z,87.73
2019-06-20T09:58:21.799Z,83.13
2019-06-20T10:00:49.298Z,87.37
2019-06-20T10:03:16.988Z,85.78
2019-06-20T10:05:44.347Z,88.37
2019-06-20T10:08:11.418Z,91.42
2019-06-20T10:10:38.896Z,88.08
2019-06-20T10:13:06.437Z,86.37
2019-06-20T10:15:36.123Z,84.77
2019-06-20T10:18:03.807Z,85.62
2019-06-20T10:20:30.823Z,85.38
2019-06-20T10:22:58.618Z,84.02
2019-06-20T10:25:26.013Z,82.00
2019-06-20T10:27:53.919Z,82.81
2019-06-20T10:30:21.842Z,83.18
2019-06-20T10:32:49.167Z,84.27
2019-06-20T10:35:16.617Z,81.75
2019-06-20T10:37:45.576Z,82.54
2019-06-20T10:40:14.452Z,80.82
2019-06-20T10:42:41.883Z,79.52
2019-06-20T10:45:10.728Z,77.53
2019-06-20T10:47:38.648Z,75.77
2019-06-20T10:50:06.870Z,73.37
2019-06-20T10:52:33.880Z,73.46
2019-06-20T10:55:02.133Z,71.18
2019-06-20T10:57:29.846Z,70.22
2019-06-20T10:59:57.216Z,70.43
2019-06-20T11:02:24.518Z,69.71
2019-06-20T11:04:52.188Z,73.69
2019-06-20T11:07:19.576Z,69.25
2019-06-20T11:09:47.177Z,71.02
2019-06-20T11:12:15.369Z,70.00
2019-06-20T11:14:44.133Z,69.40
2019-06-20T11:17:11.381Z,71.65
2019-06-20T11:19:39.757Z,67.51
2019-06-20T11:22:07.611Z,67.20
2019-06-20T11:24:34.662Z,66.57
2019-06-20T11:27:02.988Z,67.93
2019-06-20T11:29:30.382Z,70.36
2019-06-20T11:31:57.480Z,69.14
2019-06-20T11:34:24.540Z,67.35
2019-06-20T11:36:51.591Z,69.83
2019-06-20T11:39:18.647Z,71.68
2019-06-20T11:41:46.046Z,68.50
2019-06-20T11:44:13.120Z,68.48
2019-06-20T11:46:40.958Z,71.39
2019-06-20T11:49:08.304Z,66.01
2019-06-20T11:51:35.985Z,68.10
2019-06-20T11:54:03.454Z,66.55
2019-06-20T11:56:30.908Z,65.57
2019-06-20T11:58:58.212Z,64.58
2019-06-20T12:01:32.863Z,65.46
2019-06-20T12:03:55.214Z,67.96
2019-06-20T12:06:23.304Z,67.73
2019-06-20T12:08:51.787Z,66.18
2019-06-20T12:11:19.679Z,67.73
2019-06-20T12:13:48.497Z,68.53
2019-06-20T12:16:16.273Z,68.89
2019-06-20T12:18:45.158Z,63.63
2019-06-20T12:21:12.389Z,61.74
2019-06-20T12:23:40.659Z,65.19
2019-06-20T12:26:08.571Z,68.18
2019-06-20T12:28:36.089Z,67.37
2019-06-20T12:31:18.579Z,64.91
2019-06-20T12:33:32.655Z,65.73
2019-06-20T12:36:00.416Z,65.69
2019-06-20T12:38:48.365Z,67.38
2019-06-20T12:41:16.112Z,65.16
2019-06-20T12:43:44.437Z,61.47
2019-06-20T12:46:12.040Z,58.44
2019-06-20T12:48:41.172Z,57.43
2019-06-20T12:51:08.638Z,58.17
2019-06-20T12:53:37.538Z,63.37
2019-06-20T12:56:05.754Z,58.09
2019-06-20T12:58:33.384Z,56.57
2019-06-20T13:01:00.755Z,57.38
2019-06-20T13:03:28.173Z,61.88
2019-06-20T13:05:55.432Z,60.62
2019-06-20T13:08:23.189Z,59.15
2019-06-20T13:10:51.399Z,55.96
2019-06-20T13:13:18.758Z,58.24
2019-06-20T13:15:46.938Z,59.54
2019-06-20T13:18:14.075Z,56.99
2019-06-20T13:20:42.317Z,58.64
2019-06-20T13:23:09.881Z,58.03
2019-06-20T13:25:37.759Z,54.84
2019-06-20T13:28:07.046Z,52.97
2019-06-20T13:30:34.756Z,52.96
2019-06-20T13:33:03.374Z,59.98
2019-06-20T13:35:30.414Z,56.83
2019-06-20T13:37:57.761Z,53.05
2019-06-20T13:40:25.489Z,53.02
2019-06-20T13:42:54.678Z,54.56
2019-06-20T13:45:23.993Z,54.95
2019-06-20T13:47:51.504Z,55.68
2019-06-20T13:50:19.746Z,55.48
2019-06-20T13:52:49.194Z,55.98
2019-06-20T13:55:15.941Z,55.10
2019-06-20T13:57:45.335Z,57.71
2019-06-20T14:00:13.219Z,53.04
2019-06-20T14:02:41.385Z,59.17
2019-06-20T14:05:09.993Z,55.55
2019-06-20T14:07:37.085Z,56.80
2019-06-20T14:10:05.415Z,56.89
2019-06-20T14:12:33.195Z,56.68
2019-06-20T14:15:00.710Z,56.12
2019-06-20T14:17:28.221Z,54.73
2019-06-20T14:19:56.658Z,54.66
2019-06-20T14:22:23.749Z,57.85
2019-06-20T14:24:51.276Z,58.24
2019-06-20T14:27:18.992Z,55.42
2019-06-20T14:29:47.223Z,53.55
2019-06-20T14:32:22.079Z,58.71
2019-06-20T14:34:45.409Z,57.37
2019-06-20T14:37:12.749Z,56.88
2019-06-20T14:39:39.855Z,58.06
2019-06-20T14:42:07.229Z,58.96
2019-06-20T14:44:34.628Z,55.17
2019-06-20T14:47:02.376Z,56.31
2019-06-20T14:49:29.506Z,59.45
2019-06-20T14:51:56.857Z,59.61
2019-06-20T14:54:23.916Z,56.40
2019-06-20T14:56:51.964Z,57.84
2019-06-20T14:59:19.820Z,57.53
2019-06-20T15:01:48.011Z,58.98
2019-06-20T15:04:16.329Z,58.84
2019-06-20T15:06:45.000Z,61.99
2019-06-20T15:09:12.792Z,60.14
2019-06-20T15:11:40.275Z,61.48
2019-06-20T15:14:08.003Z,62.28
2019-06-20T15:16:35.503Z,60.27
2019-06-20T15:19:02.921Z,59.93
2019-06-20T15:21:30.673Z,62.71
2019-06-20T15:23:58.801Z,62.39
2019-06-20T15:26:25.869Z,63.86
2019-06-20T15:28:54.812Z,64.64
2019-06-20T15:31:22.668Z,62.82
2019-06-20T15:33:51.500Z,65.18
2019-06-20T15:36:19.380Z,63.40
2019-06-20T15:38:48.182Z,65.73
2019-06-20T15:41:16.150Z,62.11
2019-06-20T15:43:43.700Z,63.30
2019-06-20T15:46:11.064Z,64.42
2019-06-20T15:48:38.174Z,64.48
2019-06-20T15:51:05.252Z,65.22
2019-06-20T15:53:32.635Z,65.08
2019-06-20T15:55:59.862Z,66.63
2019-06-20T15:58:26.926Z,66.12
2019-06-20T16:00:53.988Z,66.62
2019-06-20T16:03:21.447Z,65.58
2019-06-20T16:05:48.828Z,66.12
2019-06-20T16:08:16.180Z,65.38
2019-06-20T16:10:43.261Z,65.22
2019-06-20T16:13:10.576Z,67.17
2019-06-20T16:15:38.053Z,66.15
2019-06-20T16:18:05.094Z,67.14
2019-06-20T16:20:32.447Z,66.73
2019-06-20T16:23:00.494Z,68.25
2019-06-20T16:25:27.943Z,68.65
2019-06-20T16:27:56.077Z,69.98
2019-06-20T16:30:24.096Z,67.49
2019-06-20T16:32:51.604Z,70.36
2019-06-20T16:35:19.386Z,68.76
2019-06-20T16:37:46.507Z,68.54
2019-06-20T16:40:14.304Z,69.03
2019-06-20T16:42:42.992Z,69.15
2019-06-20T16:45:11.108Z,70.44
2019-06-20T16:47:38.595Z,66.36
2019-06-20T16:50:08.110Z,66.02
2019-06-20T16:52:36.071Z,67.93
2019-06-20T16:55:03.559Z,67.09
2019-06-20T16:57:31.488Z,67.63
2019-06-20T16:59:58.887Z,67.53
2019-06-20T17:02:26.269Z,67.62
2019-06-20T17:04:56.458Z,68.61
2019-06-20T17:07:22.611Z,67.89
2019-06-20T17:09:49.692Z,71.35
2019-06-20T17:12:17.292Z,71.36
2019-06-20T17:14:44.604Z,69.12
2019-06-20T17:17:11.646Z,70.92
2019-06-20T17:19:42.121Z,69.52
2019-06-20T17:22:08.423Z,70.34
2019-06-20T17:24:36.120Z,69.86
2019-06-20T17:27:06.924Z,69.22
2019-06-20T17:29:34.604Z,67.91
2019-06-20T17:32:02.625Z,66.57
2019-06-20T17:34:29.657Z,66.92
2019-06-20T17:36:57.054Z,68.40
2019-06-20T17:39:24.610Z,68.00
2019-06-20T17:41:55.598Z,66.88
2019-06-20T17:44:22.485Z,69.03
2019-06-20T17:46:52.575Z,70.63
2019-06-20T17:49:20.156Z,69.40
2019-06-20T17:51:47.599Z,70.78
2019-06-20T17:54:14.648Z,68.73
2019-06-20T17:56:41.712Z,69.75
2019-06-20T17:59:09.083Z,69.34
2019-06-20T18:01:37.843Z,70.66
2019-06-20T18:04:13.592Z,70.69
2019-06-20T18:06:34.714Z,71.36
2019-06-20T18:09:03.353Z,71.77
2019-06-20T18:11:30.395Z,71.30
2019-06-20T18:13:57.836Z,73.45
2019-06-20T18:16:25.813Z,72.78
2019-06-20T18:18:52.846Z,72.55
2019-06-20T18:21:20.456Z,72.54
2019-06-20T18:23:47.888Z,71.09
2019-06-20T18:26:15.260Z,71.36
2019-06-20T18:28:44.782Z,71.04
2019-06-20T18:31:12.896Z,71.81
2019-06-20T18:33:40.680Z,71.73
2019-06-20T18:36:08.296Z,69.98
2019-06-20T18:38:35.743Z,70.50
2019-06-20T18:41:03.114Z,71.07
2019-06-20T18:43:30.509Z,71.24
2019-06-20T18:45:57.907Z,71.34
2019-06-20T18:48:24.916Z,71.92
2019-06-20T18:50:52.424Z,72.76
2019-06-20T18:53:19.875Z,77.31
2019-06-20T18:55:47.398Z,77.94
2019-06-20T18:58:15.036Z,81.70
2019-06-20T19:00:42.632Z,79.98
2019-06-20T19:03:10.450Z,80.89
2019-06-20T19:05:37.797Z,80.56
2019-06-20T19:08:05.301Z,81.04
2019-06-20T19:10:33.666Z,82.61
2019-06-20T19:13:03.715Z,81.23
2019-06-20T19:15:31.736Z,82.81
2019-06-20T19:17:59.690Z,81.81
2019-06-20T19:20:26.703Z,82.38
2019-06-20T19:22:53.986Z,80.91
2019-06-20T19:25:21.640Z,81.79
2019-06-20T19:27:49.071Z,82.31
2019-06-20T19:30:17.216Z,82.72
2019-06-20T19:32:44.296Z,83.33
2019-06-20T19:35:13.902Z,82.48
2019-06-20T19:37:41.374Z,83.02
2019-06-20T19:40:09.632Z,81.96
2019-06-20T19:42:37.582Z,84.18
2019-06-20T19:45:06.241Z,84.29
2019-06-20T19:47:34.096Z,82.33
2019-06-20T19:50:01.640Z,82.93
2019-06-20T19:52:29.848Z,83.51
2019-06-20T19:54:58.026Z,83.39
2019-06-20T19:57:25.107Z,82.80
2019-06-20T19:59:54.687Z,83.10
2019-06-20T20:02:22.667Z,82.25
2019-06-20T20:04:50.520Z,82.82
2019-06-20T20:07:18.493Z,83.70
2019-06-20T20:09:46.213Z,83.10
2019-06-20T20:12:14.294Z,83.60
2019-06-20T20:14:42.040Z,83.37
2019-06-20T20:17:09.640Z,83.57
2019-06-20T20:19:37.660Z,83.47
2019-06-20T20:22:06.608Z,82.60
2019-06-20T20:24:33.955Z,85.10
2019-06-20T20:27:01.335Z,85.31
2019-06-20T20:29:28.438Z,85.48
2019-06-20T20:31:55.504Z,84.38
2019-06-20T20:34:23.707Z,84.54
2019-06-20T20:36:51.760Z,83.52
2019-06-20T20:39:19.928Z,84.87
2019-06-20T20:41:46.949Z,85.27
2019-06-20T20:44:14.033Z,87.20
2019-06-20T20:46:41.080Z,87.38
2019-06-20T20:49:08.539Z,88.49
2019-06-20T20:51:36.318Z,88.61
2019-06-20T20:54:03.885Z,89.25
2019-06-20T20:56:31.945Z,88.80
2019-06-20T20:58:59.642Z,89.50
2019-06-20T21:01:30.395Z,90.20
2019-06-20T21:03:58.658Z,91.11
2019-06-20T21:06:26.052Z,90.07
2019-06-20T21:08:53.360Z,89.96
2019-06-20T21:11:20.758Z,90.74
2019-06-20T21:13:48.161Z,90.82
2019-06-20T21:16:15.222Z,91.60
2019-06-20T21:18:42.635Z,90.64
2019-06-20T21:21:10.051Z,90.91
2019-06-20T21:23:37.486Z,92.32
2019-06-20T21:26:04.896Z,92.39
2019-06-20T21:28:32.723Z,91.76
2019-06-20T21:30:59.824Z,93.23
2019-06-20T21:33:27.181Z,93.08
2019-06-20T21:36:07.844Z,92.95
2019-06-20T21:38:24.965Z,93.11
2019-06-20T21:40:52.708Z,92.66
2019-06-20T21:43:20.076Z,92.90
2019-06-20T21:45:47.437Z,93.33
2019-06-20T21:48:15.487Z,92.97
2019-06-20T21:50:43.067Z,92.83
2019-06-20T21:53:10.826Z,94.01
2019-06-20T21:55:38.463Z,93.72
2019-06-20T21:58:06.346Z,93.33
2019-06-20T22:00:40.501Z,93.37
2019-06-20T22:03:08.329Z,94.22
2019-06-20T22:05:35.677Z,93.59
2019-06-20T22:08:02.885Z,93.52
2019-06-20T22:10:31.067Z,93.21
2019-06-20T22:12:58.463Z,93.92
2019-06-20T22:15:25.765Z,94.28
2019-06-20T22:17:52.850Z,94.08
2019-06-20T22:20:21.271Z,95.29
2019-06-20T22:22:48.961Z,96.08
2019-06-20T22:25:16.527Z,96.96
2019-06-20T22:27:43.914Z,97.51
2019-06-20T22:30:12.438Z,96.30
2019-06-20T22:32:40.071Z,95.48
2019-06-20T22:35:08.110Z,96.39
2019-06-20T22:37:35.515Z,96.26
2019-06-20T22:40:03.399Z,95.55
2019-06-20T22:42:30.829Z,97.06
2019-06-20T22:44:58.574Z,96.82
2019-06-20T22:47:25.562Z,96.84
2019-06-20T22:49:52.906Z,96.47
2019-06-20T22:52:19.973Z,95.39
2019-06-20T22:54:47.027Z,95.81
2019-06-20T22:57:14.359Z,96.70
2019-06-20T22:59:42.049Z,95.75
2019-06-20T23:02:09.492Z,96.39
2019-06-20T23:04:36.784Z,96.59
2019-06-20T23:07:04.174Z,97.81
2019-06-20T23:09:31.455Z,97.87
2019-06-20T23:11:59.490Z,97.62
2019-06-20T23:14:27.171Z,96.12
2019-06-20T23:16:54.250Z,97.50
2019-06-20T23:19:21.975Z,97.58
2019-06-20T23:21:49.350Z,96.68
2019-06-20T23:24:17.063Z,97.45
2019-06-20T23:26:44.057Z,98.39
2019-06-20T23:29:24.204Z,97.16
2019-06-20T23:31:52.634Z,96.94
2019-06-20T23:34:20.247Z,96.52
2019-06-20T23:36:47.695Z,96.51
2019-06-20T23:39:15.063Z,97.66
2019-06-20T23:41:43.125Z,98.62
2019-06-20T23:44:10.238Z,97.73
2019-06-20T23:46:37.570Z,98.52
2019-06-20T23:49:04.586Z,98.54
2019-06-20T23:51:33.536Z,98.49
2019-06-20T23:54:01.580Z,98.27
2019-06-20T23:56:29.278Z,99.30
2019-06-20T23:58:56.902Z,98.99
